createdAt,value
2017-09-30T00:00:53.323Z,36.00
2017-09-30T00:01:55.820Z,42.67
2017-09-30T00:02:58.278Z,38.13
2017-09-30T00:04:00.760Z,35.22
2017-09-30T00:05:03.275Z,39.05
2017-09-30T00:06:05.745Z,39.30
2017-09-30T00:07:08.243Z,31.70
2017-09-30T00:08:11.502Z,35.13
2017-09-30T00:09:14.798Z,35.45
2017-09-30T00:10:17.291Z,36.33
2017-09-30T00:11:19.854Z,36.53
2017-09-30T00:12:22.377Z,36.13
2017-09-30T00:13:25.019Z,34.78
2017-09-30T00:14:27.511Z,34.53
2017-09-30T00:15:30.212Z,39.15
2017-09-30T00:16:33.484Z,35.40
2017-09-30T00:17:36.017Z,33.38
2017-09-30T00:18:38.567Z,35.08
2017-09-30T00:19:41.806Z,34.42
2017-09-30T00:20:44.490Z,44.78
2017-09-30T00:21:46.973Z,36.42
2017-09-30T00:22:49.487Z,34.70
2017-09-30T00:23:51.952Z,37.67
2017-09-30T00:24:55.210Z,32.83
2017-09-30T00:25:57.700Z,32.92
2017-09-30T00:27:00.183Z,39.80
2017-09-30T00:28:02.782Z,35.20
2017-09-30T00:29:05.260Z,37.75
2017-09-30T00:30:07.730Z,36.90
2017-09-30T00:31:10.227Z,39.03
2017-09-30T00:32:12.758Z,37.22
2017-09-30T00:33:16.000Z,41.58
2017-09-30T00:34:18.503Z,36.80
2017-09-30T00:35:21.277Z,38.92
2017-09-30T00:36:24.525Z,38.30
2017-09-30T00:37:27.019Z,42.53
2017-09-30T00:38:29.511Z,34.40
2017-09-30T00:39:31.970Z,40.88
2017-09-30T00:40:34.476Z,33.25
2017-09-30T00:41:36.933Z,37.40
2017-09-30T00:42:40.214Z,38.55
2017-09-30T00:43:42.675Z,36.47
2017-09-30T00:44:45.158Z,34.60
2017-09-30T00:45:47.640Z,38.92
2017-09-30T00:46:50.893Z,42.38
2017-09-30T00:47:54.162Z,45.00
2017-09-30T00:48:56.664Z,36.65
2017-09-30T00:49:59.894Z,40.70
2017-09-30T00:51:03.129Z,38.97
2017-09-30T00:52:05.587Z,37.85
2017-09-30T00:53:08.057Z,38.13
2017-09-30T00:54:10.542Z,36.50
2017-09-30T00:55:13.023Z,42.53
2017-09-30T00:56:15.498Z,39.92
2017-09-30T00:57:18.602Z,38.75
2017-09-30T00:58:21.830Z,46.92
2017-09-30T00:59:24.449Z,47.53
2017-09-30T01:00:27.714Z,41.40
2017-09-30T01:01:31.086Z,39.65
2017-09-30T01:02:33.586Z,39.67
2017-09-30T01:03:36.806Z,39.00
2017-09-30T01:04:39.270Z,44.88
2017-09-30T01:05:41.746Z,47.10
2017-09-30T01:06:44.371Z,37.65
2017-09-30T01:07:46.866Z,39.38
2017-09-30T01:08:49.351Z,37.97
2017-09-30T01:09:52.586Z,38.45
2017-09-30T01:10:55.095Z,36.63
2017-09-30T01:11:57.870Z,47.17
2017-09-30T01:13:01.149Z,36.47
2017-09-30T01:14:03.610Z,45.92
2017-09-30T01:15:06.185Z,45.97
2017-09-30T01:16:08.682Z,41.88
2017-09-30T01:17:11.942Z,44.20
2017-09-30T01:18:14.466Z,41.95
2017-09-30T01:19:16.996Z,49.22
2017-09-30T01:20:19.466Z,57.15
2017-09-30T01:21:21.972Z,38.85
2017-09-30T01:22:24.523Z,40.42
2017-09-30T01:23:27.090Z,42.25
2017-09-30T01:24:29.615Z,41.85
2017-09-30T01:25:32.119Z,43.65
2017-09-30T01:26:35.343Z,40.20
2017-09-30T01:27:37.798Z,36.45
2017-09-30T01:28:41.534Z,43.95
2017-09-30T01:29:44.056Z,40.05
2017-09-30T01:30:51.447Z,40.20
2017-09-30T01:31:53.944Z,40.47
2017-09-30T01:32:57.166Z,46.25
2017-09-30T01:34:00.440Z,48.08
2017-09-30T01:35:02.929Z,40.75
2017-09-30T01:36:05.434Z,39.65
2017-09-30T01:37:07.896Z,44.20
2017-09-30T01:38:11.158Z,43.15
2017-09-30T01:39:13.682Z,42.40
2017-09-30T01:40:16.196Z,43.85
2017-09-30T01:41:19.464Z,41.58
2017-09-30T01:42:22.050Z,49.25
2017-09-30T01:43:24.524Z,36.97
2017-09-30T01:44:26.991Z,45.15
2017-09-30T01:45:29.467Z,49.83
2017-09-30T01:46:31.950Z,41.45
2017-09-30T01:47:35.216Z,50.28
2017-09-30T01:48:37.677Z,52.55
2017-09-30T01:49:40.157Z,48.40
2017-09-30T01:50:43.399Z,47.33
2017-09-30T01:51:46.760Z,67.20
2017-09-30T01:52:49.286Z,45.20
2017-09-30T01:53:51.760Z,47.78
2017-09-30T01:54:54.214Z,43.85
2017-09-30T01:55:57.439Z,46.28
2017-09-30T01:56:59.939Z,42.00
2017-09-30T01:58:02.418Z,44.33
2017-09-30T01:59:05.645Z,39.55
2017-09-30T02:00:08.881Z,49.55
2017-09-30T02:01:14.090Z,42.67
2017-09-30T02:02:17.349Z,46.50
2017-09-30T02:03:19.822Z,45.55
2017-09-30T02:04:22.273Z,45.28
2017-09-30T02:05:25.499Z,49.35
2017-09-30T02:06:28.738Z,48.50
2017-09-30T02:07:32.034Z,48.05
2017-09-30T02:08:34.542Z,46.97
2017-09-30T02:09:37.006Z,47.00
2017-09-30T02:10:39.521Z,48.80
2017-09-30T02:11:41.997Z,41.67
2017-09-30T02:12:45.258Z,45.83
2017-09-30T02:13:47.723Z,45.92
2017-09-30T02:14:50.235Z,45.10
2017-09-30T02:15:52.694Z,46.37
2017-09-30T02:16:56.248Z,44.53
2017-09-30T02:17:58.715Z,44.55
2017-09-30T02:19:01.182Z,45.78
2017-09-30T02:20:03.677Z,44.70
2017-09-30T02:21:06.154Z,47.28
2017-09-30T02:22:08.629Z,46.60
2017-09-30T02:23:11.127Z,47.10
2017-09-30T02:24:13.597Z,44.70
2017-09-30T02:25:16.075Z,49.45
2017-09-30T02:26:19.343Z,53.22
2017-09-30T02:27:21.821Z,52.95
2017-09-30T02:28:25.059Z,46.00
2017-09-30T02:29:27.518Z,49.30
2017-09-30T02:30:30.013Z,55.28
2017-09-30T02:31:33.274Z,45.25
2017-09-30T02:32:35.812Z,47.65
2017-09-30T02:33:38.288Z,49.55
2017-09-30T02:34:40.850Z,55.50
2017-09-30T02:35:44.117Z,53.45
2017-09-30T02:36:46.568Z,48.00
2017-09-30T02:37:49.147Z,47.22
2017-09-30T02:38:52.378Z,46.22
2017-09-30T02:39:55.648Z,49.97
2017-09-30T02:40:59.088Z,50.53
2017-09-30T02:42:01.550Z,48.00
2017-09-30T02:43:04.052Z,49.03
2017-09-30T02:44:06.584Z,50.42
2017-09-30T02:45:09.094Z,46.35
2017-09-30T02:46:11.553Z,48.15
2017-09-30T02:47:14.032Z,49.30
2017-09-30T02:48:16.501Z,50.33
2017-09-30T02:49:18.966Z,48.58
2017-09-30T02:50:22.317Z,48.47
2017-09-30T02:51:25.558Z,46.00
2017-09-30T02:52:28.795Z,57.67
2017-09-30T02:53:32.022Z,48.28
2017-09-30T02:54:34.480Z,48.53
2017-09-30T02:55:36.982Z,49.53
2017-09-30T02:56:40.219Z,52.17
2017-09-30T02:57:43.490Z,52.40
2017-09-30T02:58:45.998Z,53.67
2017-09-30T02:59:49.235Z,52.45
2017-09-30T03:00:52.502Z,49.13
2017-09-30T03:01:54.972Z,54.28
2017-09-30T03:02:57.441Z,54.58
2017-09-30T03:04:00.679Z,53.40
2017-09-30T03:05:03.955Z,51.15
2017-09-30T03:06:06.456Z,47.80
2017-09-30T03:07:08.921Z,50.63
2017-09-30T03:08:11.401Z,54.03
2017-09-30T03:09:14.696Z,49.92
2017-09-30T03:10:17.179Z,53.92
2017-09-30T03:11:19.641Z,52.28
2017-09-30T03:12:22.120Z,52.85
2017-09-30T03:13:25.351Z,52.80
2017-09-30T03:14:28.622Z,57.13
2017-09-30T03:15:31.081Z,52.53
2017-09-30T03:16:33.557Z,49.88
2017-09-30T03:17:36.240Z,47.75
2017-09-30T03:18:38.687Z,52.33
2017-09-30T03:19:41.934Z,52.28
2017-09-30T03:20:45.183Z,55.65
2017-09-30T03:21:48.407Z,54.40
2017-09-30T03:22:51.046Z,54.95
2017-09-30T03:23:54.541Z,49.85
2017-09-30T03:24:57.087Z,52.05
2017-09-30T03:25:59.563Z,56.33
2017-09-30T03:27:02.080Z,49.13
2017-09-30T03:28:05.330Z,54.55
2017-09-30T03:29:08.566Z,58.10
2017-09-30T03:30:11.803Z,58.28
2017-09-30T03:31:15.053Z,54.63
2017-09-30T03:32:18.318Z,53.42
2017-09-30T03:33:20.826Z,53.47
2017-09-30T03:34:24.058Z,65.93
2017-09-30T03:35:27.291Z,58.80
2017-09-30T03:36:30.523Z,58.33
2017-09-30T03:37:33.773Z,58.87
2017-09-30T03:38:36.999Z,52.90
2017-09-30T03:39:39.556Z,58.15
2017-09-30T03:40:42.786Z,54.75
2017-09-30T03:41:46.148Z,51.97
2017-09-30T03:42:49.590Z,53.22
2017-09-30T03:43:52.816Z,61.47
2017-09-30T03:44:55.278Z,63.42
2017-09-30T03:45:57.762Z,54.15
2017-09-30T03:47:00.314Z,61.17
2017-09-30T03:48:02.847Z,60.90
2017-09-30T03:49:05.320Z,57.45
2017-09-30T03:50:07.774Z,59.08
2017-09-30T03:51:11.055Z,53.87
2017-09-30T03:52:13.525Z,57.38
2017-09-30T03:53:15.990Z,64.00
2017-09-30T03:54:18.434Z,60.53
2017-09-30T03:55:20.904Z,55.67
2017-09-30T03:56:23.391Z,64.30
2017-09-30T03:57:25.874Z,59.58
2017-09-30T03:58:29.942Z,56.20
2017-09-30T03:59:32.404Z,58.83
2017-09-30T04:00:35.044Z,56.25
2017-09-30T04:01:37.626Z,54.25
2017-09-30T04:02:40.446Z,56.40
2017-09-30T04:03:43.696Z,61.65
2017-09-30T04:04:47.605Z,58.40
2017-09-30T04:05:50.059Z,56.95
2017-09-30T04:06:53.327Z,56.42
2017-09-30T04:07:55.792Z,56.78
2017-09-30T04:08:58.247Z,55.40
2017-09-30T04:10:01.134Z,55.25
2017-09-30T04:11:03.591Z,55.20
2017-09-30T04:12:06.109Z,60.08
2017-09-30T04:13:08.705Z,60.85
2017-09-30T04:14:11.170Z,58.42
2017-09-30T04:15:13.638Z,58.90
2017-09-30T04:16:16.155Z,58.50
2017-09-30T04:17:19.435Z,61.67
2017-09-30T04:18:21.887Z,61.15
2017-09-30T04:19:24.428Z,58.35
2017-09-30T04:20:26.882Z,59.53
2017-09-30T04:21:29.343Z,57.35
2017-09-30T04:22:31.853Z,62.95
2017-09-30T04:23:34.365Z,65.15
2017-09-30T04:24:37.187Z,58.58
2017-09-30T04:25:39.651Z,60.47
2017-09-30T04:26:42.118Z,61.30
2017-09-30T04:27:45.388Z,57.53
2017-09-30T04:28:47.847Z,60.95
2017-09-30T04:29:50.355Z,64.53
2017-09-30T04:30:52.871Z,57.05
2017-09-30T04:31:55.333Z,56.72
2017-09-30T04:32:59.406Z,58.63
2017-09-30T04:34:01.872Z,67.20
2017-09-30T04:35:04.355Z,59.42
2017-09-30T04:36:06.908Z,66.30
2017-09-30T04:37:10.126Z,60.70
2017-09-30T04:38:12.786Z,60.58
2017-09-30T04:39:15.299Z,69.37
2017-09-30T04:40:18.527Z,61.80
2017-09-30T04:41:20.988Z,69.80
2017-09-30T04:42:23.470Z,60.12
2017-09-30T04:43:25.999Z,58.55
2017-09-30T04:44:28.596Z,58.95
2017-09-30T04:45:31.104Z,62.10
2017-09-30T04:46:33.587Z,61.47
2017-09-30T04:47:36.890Z,61.40
2017-09-30T04:48:39.382Z,63.55
2017-09-30T04:49:41.846Z,68.30
2017-09-30T04:50:44.404Z,61.20
2017-09-30T04:51:47.165Z,64.90
2017-09-30T04:52:50.135Z,63.13
2017-09-30T04:53:52.629Z,62.75
2017-09-30T04:54:55.110Z,57.83
2017-09-30T04:55:57.629Z,72.75
2017-09-30T04:57:00.723Z,61.53
2017-09-30T04:58:03.170Z,60.38
2017-09-30T04:59:05.683Z,62.38
2017-09-30T05:00:08.138Z,63.35
2017-09-30T05:01:10.609Z,63.00
2017-09-30T05:02:13.143Z,65.85
2017-09-30T05:03:15.659Z,66.25
2017-09-30T05:04:18.141Z,61.37
2017-09-30T05:05:20.609Z,68.32
2017-09-30T05:06:23.070Z,59.70
2017-09-30T05:07:25.534Z,63.35
2017-09-30T05:08:28.767Z,71.18
2017-09-30T05:09:31.276Z,74.07
2017-09-30T05:10:33.736Z,64.97
2017-09-30T05:11:36.994Z,64.18
2017-09-30T05:12:40.211Z,65.68
2017-09-30T05:13:42.756Z,64.15
2017-09-30T05:14:46.815Z,60.67
2017-09-30T05:15:50.071Z,58.20
2017-09-30T05:16:52.528Z,61.05
2017-09-30T05:17:54.990Z,62.92
2017-09-30T05:18:58.257Z,61.35
2017-09-30T05:20:01.551Z,58.85
2017-09-30T05:21:04.414Z,63.50
2017-09-30T05:22:07.630Z,65.85
2017-09-30T05:23:10.091Z,62.03
2017-09-30T05:24:13.423Z,65.55
2017-09-30T05:25:15.960Z,67.85
2017-09-30T05:26:19.195Z,60.25
2017-09-30T05:27:21.785Z,58.05
2017-09-30T05:28:24.542Z,63.80
2017-09-30T05:29:27.817Z,62.70
2017-09-30T05:30:30.363Z,62.65
2017-09-30T05:31:32.819Z,63.17
2017-09-30T05:32:36.051Z,61.22
2017-09-30T05:33:38.504Z,61.08
2017-09-30T05:34:40.958Z,65.97
2017-09-30T05:35:43.458Z,63.17
2017-09-30T05:36:46.681Z,63.42
2017-09-30T05:37:50.102Z,65.12
2017-09-30T05:38:52.558Z,67.75
2017-09-30T05:39:55.022Z,63.92
2017-09-30T05:40:57.508Z,63.75
2017-09-30T05:41:59.970Z,65.75
2017-09-30T05:43:03.230Z,66.80
2017-09-30T05:44:05.694Z,61.78
2017-09-30T05:45:08.247Z,64.20
2017-09-30T05:46:11.511Z,62.05
2017-09-30T05:47:13.971Z,71.07
2017-09-30T05:48:16.436Z,56.10
2017-09-30T05:49:18.911Z,69.53
2017-09-30T05:50:21.396Z,58.67
2017-09-30T05:51:24.648Z,66.87
2017-09-30T05:52:27.172Z,63.15
2017-09-30T05:53:29.710Z,56.00
2017-09-30T05:54:32.190Z,62.50
2017-09-30T05:55:34.823Z,58.45
2017-09-30T05:56:37.668Z,60.92
2017-09-30T05:57:40.980Z,57.67
2017-09-30T05:58:43.467Z,59.55
2017-09-30T05:59:45.993Z,56.50
2017-09-30T06:00:48.452Z,59.42
2017-09-30T06:01:51.227Z,57.90
2017-09-30T06:02:54.463Z,57.03
2017-09-30T06:03:57.709Z,55.63
2017-09-30T06:05:00.937Z,63.78
2017-09-30T06:06:04.238Z,56.70
2017-09-30T06:07:06.864Z,57.83
2017-09-30T06:08:09.348Z,58.50
2017-09-30T06:09:12.572Z,55.45
2017-09-30T06:10:15.018Z,58.55
2017-09-30T06:11:18.265Z,55.55
2017-09-30T06:12:20.791Z,54.60
2017-09-30T06:13:23.346Z,53.42
2017-09-30T06:14:25.819Z,51.90
2017-09-30T06:15:29.098Z,55.88
2017-09-30T06:16:31.573Z,52.92
2017-09-30T06:17:34.076Z,66.95
2017-09-30T06:18:36.540Z,51.90
2017-09-30T06:19:39.882Z,51.37
2017-09-30T06:20:43.123Z,57.55
2017-09-30T06:21:45.578Z,60.03
2017-09-30T06:22:48.082Z,56.92
2017-09-30T06:23:50.582Z,55.90
2017-09-30T06:24:53.919Z,52.80
2017-09-30T06:25:57.544Z,60.17
2017-09-30T06:27:00.069Z,56.30
2017-09-30T06:28:04.225Z,54.75
2017-09-30T06:29:08.037Z,57.13
2017-09-30T06:30:11.239Z,56.80
2017-09-30T06:31:13.737Z,60.42
2017-09-30T06:32:16.223Z,56.92
2017-09-30T06:33:18.762Z,53.35
2017-09-30T06:34:21.996Z,54.33
2017-09-30T06:35:25.639Z,48.87
2017-09-30T06:36:28.622Z,48.53
2017-09-30T06:37:31.090Z,52.67
2017-09-30T06:38:35.551Z,53.15
2017-09-30T06:39:38.027Z,50.92
2017-09-30T06:40:49.424Z,49.03
2017-09-30T06:41:51.890Z,51.47
2017-09-30T06:42:54.430Z,48.35
2017-09-30T06:43:57.036Z,57.17
2017-09-30T06:44:59.491Z,47.20
2017-09-30T06:46:01.962Z,49.25
2017-09-30T06:47:05.240Z,48.58
2017-09-30T06:48:07.706Z,46.97
2017-09-30T06:49:10.334Z,47.83
2017-09-30T06:50:13.589Z,50.22
2017-09-30T06:51:16.054Z,51.55
2017-09-30T06:52:18.613Z,47.58
2017-09-30T06:53:21.068Z,51.63
2017-09-30T06:54:23.585Z,48.45
2017-09-30T06:55:26.047Z,43.15
2017-09-30T06:56:28.506Z,44.92
2017-09-30T06:57:31.026Z,43.20
2017-09-30T06:58:33.570Z,48.05
2017-09-30T06:59:36.062Z,53.58
2017-09-30T07:00:38.523Z,46.20
2017-09-30T07:01:41.021Z,47.30
2017-09-30T07:02:43.494Z,47.58
2017-09-30T07:03:45.967Z,45.28
2017-09-30T07:04:48.674Z,38.38
2017-09-30T07:05:51.143Z,42.42
2017-09-30T07:06:53.639Z,39.55
2017-09-30T07:07:56.178Z,45.00
2017-09-30T07:08:58.654Z,42.00
2017-09-30T07:10:01.204Z,42.00
2017-09-30T07:11:04.424Z,39.45
2017-09-30T07:12:07.696Z,35.20
2017-09-30T07:13:10.599Z,36.17
2017-09-30T07:14:13.838Z,36.75
2017-09-30T07:15:16.352Z,34.25
2017-09-30T07:16:18.921Z,37.20
2017-09-30T07:17:21.567Z,35.38
2017-09-30T07:18:24.031Z,37.67
2017-09-30T07:19:26.496Z,33.20
2017-09-30T07:20:29.804Z,38.65
2017-09-30T07:21:32.368Z,33.50
2017-09-30T07:22:34.907Z,36.50
2017-09-30T07:23:37.440Z,35.00
2017-09-30T07:24:39.902Z,30.02
2017-09-30T07:25:43.938Z,30.30
2017-09-30T07:26:46.408Z,35.17
2017-09-30T07:27:48.966Z,30.83
2017-09-30T07:28:51.460Z,29.95
2017-09-30T07:29:54.017Z,33.10
2017-09-30T07:30:56.539Z,32.45
2017-09-30T07:31:59.075Z,29.40
2017-09-30T07:33:01.606Z,31.58
2017-09-30T07:34:04.413Z,27.90
2017-09-30T07:35:07.646Z,29.75
2017-09-30T07:36:10.916Z,28.50
2017-09-30T07:37:13.479Z,29.02
2017-09-30T07:38:15.943Z,28.05
2017-09-30T07:39:19.195Z,28.83
2017-09-30T07:40:21.721Z,29.45
2017-09-30T07:41:24.260Z,32.38
2017-09-30T07:42:26.762Z,29.87
2017-09-30T07:43:30.100Z,24.02
2017-09-30T07:44:32.567Z,29.20
2017-09-30T07:45:35.067Z,24.42
2017-09-30T07:46:37.583Z,28.33
2017-09-30T07:47:40.824Z,26.45
2017-09-30T07:48:44.089Z,27.77
2017-09-30T07:49:47.318Z,30.00
2017-09-30T07:50:50.578Z,28.95
2017-09-30T07:51:53.087Z,24.60
2017-09-30T07:52:55.544Z,25.40
2017-09-30T07:53:58.022Z,27.10
2017-09-30T07:55:01.250Z,28.00
2017-09-30T07:56:03.722Z,23.38
2017-09-30T07:57:06.206Z,28.80
2017-09-30T07:58:09.472Z,24.52
2017-09-30T07:59:12.745Z,26.55
2017-09-30T08:00:15.258Z,29.42
2017-09-30T08:01:17.774Z,24.92
2017-09-30T08:02:20.251Z,23.80
2017-09-30T08:03:22.712Z,28.12
2017-09-30T08:04:26.063Z,26.08
2017-09-30T08:05:28.589Z,29.58
2017-09-30T08:06:31.855Z,23.27
2017-09-30T08:07:34.308Z,28.33
2017-09-30T08:08:36.887Z,19.30
2017-09-30T08:09:39.413Z,26.75
2017-09-30T08:10:41.886Z,22.77
2017-09-30T08:11:44.426Z,23.15
2017-09-30T08:12:47.703Z,26.87
2017-09-30T08:13:50.244Z,23.58
2017-09-30T08:14:52.753Z,27.95
2017-09-30T08:15:55.224Z,24.90
2017-09-30T08:16:57.814Z,30.17
2017-09-30T08:18:00.282Z,25.17
2017-09-30T08:19:02.791Z,22.80
2017-09-30T08:20:05.336Z,23.15
2017-09-30T08:21:07.826Z,21.60
2017-09-30T08:22:10.356Z,23.77
2017-09-30T08:23:12.828Z,23.98
2017-09-30T08:24:16.066Z,23.00
2017-09-30T08:25:18.632Z,23.10
2017-09-30T08:26:21.154Z,25.10
2017-09-30T08:27:23.652Z,21.73
2017-09-30T08:28:26.134Z,20.45
2017-09-30T08:29:28.594Z,20.67
2017-09-30T08:30:31.111Z,24.12
2017-09-30T08:31:34.198Z,34.95
2017-09-30T08:32:36.678Z,23.52
2017-09-30T08:33:39.246Z,21.25
2017-09-30T08:34:41.778Z,22.67
2017-09-30T08:35:44.343Z,20.37
2017-09-30T08:36:46.822Z,34.00
2017-09-30T08:37:49.323Z,21.30
2017-09-30T08:38:51.889Z,26.70
2017-09-30T08:39:55.738Z,25.55
2017-09-30T08:40:58.220Z,20.92
2017-09-30T08:42:00.681Z,23.15
2017-09-30T08:43:03.201Z,29.55
2017-09-30T08:44:06.551Z,19.00
2017-09-30T08:45:09.897Z,23.10
2017-09-30T08:46:13.150Z,27.27
2017-09-30T08:47:15.623Z,24.85
2017-09-30T08:48:18.211Z,21.40
2017-09-30T08:49:20.699Z,20.30
2017-09-30T08:50:23.944Z,26.20
2017-09-30T08:51:27.190Z,20.30
2017-09-30T08:52:30.457Z,25.77
2017-09-30T08:53:32.966Z,21.17
2017-09-30T08:54:35.458Z,26.15
2017-09-30T08:55:37.923Z,23.12
2017-09-30T08:56:40.401Z,35.88
2017-09-30T08:57:43.266Z,25.60
2017-09-30T08:58:46.524Z,20.45
2017-09-30T08:59:49.005Z,24.85
2017-09-30T09:00:51.587Z,22.73
2017-09-30T09:01:54.042Z,24.58
2017-09-30T09:02:56.534Z,27.67
2017-09-30T09:03:59.143Z,23.27
2017-09-30T09:05:02.383Z,22.02
2017-09-30T09:06:05.612Z,26.45
2017-09-30T09:07:08.115Z,23.25
2017-09-30T09:08:10.642Z,27.95
2017-09-30T09:09:13.215Z,20.08
2017-09-30T09:10:15.824Z,25.08
2017-09-30T09:11:19.154Z,23.05
2017-09-30T09:12:21.775Z,21.20
2017-09-30T09:13:25.763Z,28.40
2017-09-30T09:14:29.005Z,32.47
2017-09-30T09:15:32.271Z,24.02
2017-09-30T09:16:34.769Z,20.90
2017-09-30T09:17:37.999Z,22.27
2017-09-30T09:18:40.654Z,22.02
2017-09-30T09:19:43.109Z,24.33
2017-09-30T09:20:45.608Z,21.42
2017-09-30T09:21:48.822Z,27.77
2017-09-30T09:22:52.194Z,24.83
2017-09-30T09:23:54.724Z,20.98
2017-09-30T09:24:57.210Z,23.92
2017-09-30T09:26:00.479Z,22.15
2017-09-30T09:27:02.944Z,21.00
2017-09-30T09:28:05.524Z,22.90
2017-09-30T09:29:08.754Z,29.37
2017-09-30T09:30:12.002Z,22.48
2017-09-30T09:31:15.265Z,21.77
2017-09-30T09:32:17.743Z,20.12
2017-09-30T09:33:20.238Z,20.60
2017-09-30T09:34:22.704Z,22.55
2017-09-30T09:35:25.180Z,19.42
2017-09-30T09:36:27.689Z,27.65
2017-09-30T09:37:30.932Z,25.90
2017-09-30T09:38:33.439Z,34.00
2017-09-30T09:39:36.846Z,23.23
2017-09-30T09:40:39.294Z,21.20
2017-09-30T09:41:42.024Z,21.17
2017-09-30T09:42:45.273Z,21.73
2017-09-30T09:43:48.538Z,24.73
2017-09-30T09:44:51.080Z,23.48
2017-09-30T09:45:53.554Z,21.62
2017-09-30T09:46:56.018Z,18.08
2017-09-30T09:47:58.486Z,21.17
2017-09-30T09:49:00.954Z,23.92
2017-09-30T09:50:04.238Z,25.48
2017-09-30T09:51:06.706Z,24.98
2017-09-30T09:52:09.951Z,23.58
2017-09-30T09:53:13.176Z,24.17
2017-09-30T09:54:17.150Z,25.92
2017-09-30T09:55:20.397Z,22.67
2017-09-30T09:56:23.660Z,22.20
2017-09-30T09:57:26.147Z,23.60
2017-09-30T09:58:28.629Z,21.62
2017-09-30T09:59:31.143Z,19.73
2017-09-30T10:00:33.636Z,20.05
2017-09-30T10:01:36.871Z,17.83
2017-09-30T10:02:39.361Z,22.95
2017-09-30T10:03:41.919Z,21.87
2017-09-30T10:04:44.535Z,21.62
2017-09-30T10:05:47.029Z,24.67
2017-09-30T10:06:49.531Z,26.58
2017-09-30T10:07:52.014Z,24.98
2017-09-30T10:08:54.610Z,22.33
2017-09-30T10:09:57.081Z,23.83
2017-09-30T10:10:59.635Z,20.80
2017-09-30T10:12:02.159Z,19.87
2017-09-30T10:13:05.391Z,19.92
2017-09-30T10:14:08.677Z,21.35
2017-09-30T10:15:11.175Z,20.27
2017-09-30T10:16:13.680Z,22.42
2017-09-30T10:17:16.372Z,19.27
2017-09-30T10:18:18.964Z,20.12
2017-09-30T10:19:21.446Z,20.83
2017-09-30T10:20:24.009Z,23.40
2017-09-30T10:21:26.476Z,18.42
2017-09-30T10:22:28.986Z,24.33
2017-09-30T10:23:31.457Z,19.98
2017-09-30T10:24:34.692Z,19.15
2017-09-30T10:25:38.028Z,24.80
2017-09-30T10:26:40.486Z,23.75
2017-09-30T10:27:43.764Z,21.90
2017-09-30T10:28:46.266Z,21.48
2017-09-30T10:29:48.751Z,22.30
2017-09-30T10:30:51.319Z,22.90
2017-09-30T10:31:53.847Z,20.42
2017-09-30T10:32:56.330Z,19.30
2017-09-30T10:34:00.338Z,23.12
2017-09-30T10:35:02.821Z,20.92
2017-09-30T10:36:06.068Z,25.40
2017-09-30T10:37:08.522Z,30.52
2017-09-30T10:38:10.979Z,22.30
2017-09-30T10:39:14.082Z,24.67
2017-09-30T10:40:17.170Z,23.58
2017-09-30T10:41:19.659Z,22.52
2017-09-30T10:42:22.167Z,22.62
2017-09-30T10:43:24.752Z,23.77
2017-09-30T10:44:27.227Z,23.25
2017-09-30T10:45:29.759Z,22.23
2017-09-30T10:46:32.272Z,20.50
2017-09-30T10:47:34.740Z,19.60
2017-09-30T10:48:37.258Z,19.98
2017-09-30T10:49:39.746Z,23.35
2017-09-30T10:50:42.235Z,16.58
2017-09-30T10:51:44.779Z,28.42
2017-09-30T10:52:47.269Z,18.33
2017-09-30T10:53:49.755Z,26.17
2017-09-30T10:54:52.279Z,21.40
2017-09-30T10:55:54.777Z,24.12
2017-09-30T10:56:58.043Z,22.80
2017-09-30T10:58:00.518Z,19.10
2017-09-30T10:59:03.117Z,24.27
2017-09-30T11:00:05.574Z,18.65
2017-09-30T11:01:08.039Z,18.48
2017-09-30T11:02:11.283Z,21.42
2017-09-30T11:03:13.825Z,20.25
2017-09-30T11:04:16.337Z,18.30
2017-09-30T11:05:19.628Z,20.62
2017-09-30T11:06:22.103Z,21.95
2017-09-30T11:07:25.150Z,19.30
2017-09-30T11:08:27.716Z,17.58
2017-09-30T11:09:30.228Z,19.83
2017-09-30T11:10:32.712Z,19.92
2017-09-30T11:11:35.954Z,18.92
2017-09-30T11:12:39.698Z,21.20
2017-09-30T11:13:43.802Z,18.30
2017-09-30T11:14:46.315Z,16.65
2017-09-30T11:15:48.880Z,19.08
2017-09-30T11:16:51.454Z,23.30
2017-09-30T11:17:53.974Z,16.52
2017-09-30T11:18:57.225Z,18.92
2017-09-30T11:20:00.476Z,18.12
2017-09-30T11:21:02.958Z,17.48
2017-09-30T11:22:05.463Z,17.00
2017-09-30T11:23:07.925Z,17.25
2017-09-30T11:24:11.198Z,17.08
2017-09-30T11:25:13.670Z,17.98
2017-09-30T11:26:16.871Z,18.98
2017-09-30T11:27:19.529Z,18.60
2017-09-30T11:28:22.006Z,16.98
2017-09-30T11:29:24.538Z,15.60
2017-09-30T11:30:27.014Z,14.95
2017-09-30T11:31:29.503Z,22.67
2017-09-30T11:32:31.988Z,19.87
2017-09-30T11:33:35.232Z,14.43
2017-09-30T11:34:38.478Z,15.77
2017-09-30T11:35:41.726Z,16.35
2017-09-30T11:36:45.026Z,19.08
2017-09-30T11:37:47.487Z,25.58
2017-09-30T11:38:50.725Z,17.92
2017-09-30T11:39:54.098Z,20.20
2017-09-30T11:40:56.588Z,20.62
2017-09-30T11:41:59.139Z,20.60
2017-09-30T11:43:01.607Z,16.00
2017-09-30T11:44:04.095Z,22.30
2017-09-30T11:45:06.579Z,16.30
2017-09-30T11:46:09.081Z,16.70
2017-09-30T11:47:11.567Z,17.33
2017-09-30T11:48:14.096Z,15.00
2017-09-30T11:49:16.570Z,16.00
2017-09-30T11:50:19.254Z,17.10
2017-09-30T11:51:21.774Z,19.58
2017-09-30T11:52:24.320Z,17.55
2017-09-30T11:53:26.782Z,14.95
2017-09-30T11:54:29.243Z,15.25
2017-09-30T11:55:31.783Z,16.45
2017-09-30T11:56:34.263Z,14.05
2017-09-30T11:57:36.732Z,16.62
2017-09-30T11:58:40.278Z,20.55
2017-09-30T11:59:42.751Z,13.32
2017-09-30T12:00:45.245Z,14.48
2017-09-30T12:01:47.732Z,17.92
2017-09-30T12:02:51.134Z,21.52
2017-09-30T12:03:53.608Z,15.20
2017-09-30T12:04:56.886Z,15.85
2017-09-30T12:05:59.354Z,14.57
2017-09-30T12:07:01.830Z,17.92
2017-09-30T12:08:04.344Z,18.90
2017-09-30T12:09:06.808Z,14.87
2017-09-30T12:10:09.302Z,18.60
2017-09-30T12:11:11.820Z,15.55
2017-09-30T12:12:14.303Z,15.77
2017-09-30T12:13:16.863Z,14.50
2017-09-30T12:14:19.339Z,14.38
2017-09-30T12:15:21.862Z,13.68
2017-09-30T12:16:24.329Z,14.30
2017-09-30T12:17:26.894Z,18.55
2017-09-30T12:18:29.358Z,14.02
2017-09-30T12:19:32.580Z,12.65
2017-09-30T12:20:35.084Z,16.05
2017-09-30T12:21:39.078Z,14.95
2017-09-30T12:22:41.642Z,19.42
2017-09-30T12:23:44.135Z,11.93
2017-09-30T12:24:46.597Z,16.02
2017-09-30T12:25:49.058Z,17.75
2017-09-30T12:26:51.547Z,17.02
2017-09-30T12:27:54.031Z,15.60
2017-09-30T12:28:56.599Z,15.50
2017-09-30T12:29:59.119Z,13.35
2017-09-30T12:31:01.611Z,14.18
2017-09-30T12:32:04.075Z,20.52
2017-09-30T12:33:06.544Z,16.30
2017-09-30T12:34:09.008Z,13.88
2017-09-30T12:35:11.535Z,14.65
2017-09-30T12:36:14.770Z,13.43
2017-09-30T12:37:18.031Z,12.32
2017-09-30T12:38:20.497Z,16.08
2017-09-30T12:39:22.962Z,17.23
2017-09-30T12:40:26.223Z,13.18
2017-09-30T12:41:28.700Z,14.43
2017-09-30T12:42:31.151Z,17.25
2017-09-30T12:43:34.411Z,14.95
2017-09-30T12:44:36.885Z,14.60
2017-09-30T12:45:39.379Z,21.67
2017-09-30T12:46:41.907Z,16.80
2017-09-30T12:47:44.397Z,16.98
2017-09-30T12:48:47.652Z,14.75
2017-09-30T12:49:50.901Z,16.00
2017-09-30T12:50:53.410Z,16.00
2017-09-30T12:51:57.299Z,15.13
2017-09-30T12:52:59.780Z,14.57
2017-09-30T12:54:02.331Z,16.33
2017-09-30T12:55:04.838Z,13.18
2017-09-30T12:56:08.076Z,13.57
2017-09-30T12:57:10.533Z,15.05
2017-09-30T12:58:13.002Z,11.10
2017-09-30T12:59:15.483Z,18.80
2017-09-30T13:00:17.958Z,15.80
2017-09-30T13:01:20.420Z,14.25
2017-09-30T13:02:22.907Z,11.52
2017-09-30T13:03:25.391Z,14.18
2017-09-30T13:04:27.862Z,15.77
2017-09-30T13:05:30.347Z,16.98
2017-09-30T13:06:32.842Z,13.00
2017-09-30T13:07:36.118Z,13.13
2017-09-30T13:08:38.607Z,19.10
2017-09-30T13:09:41.865Z,12.68
2017-09-30T13:10:44.336Z,14.50
2017-09-30T13:11:46.908Z,13.73
2017-09-30T13:12:49.443Z,10.90
2017-09-30T13:13:51.906Z,10.70
2017-09-30T13:14:54.383Z,11.90
2017-09-30T13:15:57.623Z,14.40
2017-09-30T13:17:00.842Z,12.45
2017-09-30T13:18:04.094Z,11.63
2017-09-30T13:19:07.410Z,14.98
2017-09-30T13:20:09.898Z,15.57
2017-09-30T13:21:12.406Z,9.50
2017-09-30T13:22:14.862Z,14.05
2017-09-30T13:23:17.319Z,16.10
2017-09-30T13:24:20.001Z,9.48
2017-09-30T13:25:22.468Z,12.60
2017-09-30T13:26:24.964Z,14.87
2017-09-30T13:27:27.830Z,12.65
2017-09-30T13:28:30.304Z,13.48